Strona główna
METAR-TAF:

METAR-TAF

Lotnisko :

Port lotniczy Guardiamarina Zañartu

Puerto Williams, Chile

Szerokość geograficzna: 54-56-00S, Długość geograficzna: 067-37-00W, wysokość: 27 m

Aktualna obserwacja pogody

Raport powstał 20 godziny i 31 minut temu, godzina 17:00 UTC
Wiatr 14 kt od zachód
Temperatura 2°C
Wilgotność 80%
Ciśnienie 1020 hPa
Widzialność 10 km lub więcej
Mało chmury na wysokości 1600 ft
Przerywane chmury na wysokości 3000 ft
przelotny w pobliże,

METAR: SCGZ 201700Z 27014KT 9999 VCSH FEW016 BKN030 02/M01 Q1020

czas: 09:31 (13:31 UTC)


TAF: brakujący

Obserwacja i prognoza pogody dla ponad 4000 lotnisk (raport METAR i TAF).

Dostępne stacje oznaczono żółtymi i czerwonymi punktami na mapie.

Najedź kursorem aby zobaczyć nazwę stacji.

Kliknij aby zobaczyć obserwacje i prognozy pogody.

Aby zmienić mapę: kliknij na zielony przycisk z czarnym krzyżykiem, aby powiększyć; na zielony przycisk z myślnikiem, aby pomniejszyć; na zielone strzałki, aby przejść do map sąsiednich.


METAR-TAF: